Time;durP1;ratioP1;P1;durP2;ratioP2;P2;SDS_P1;SDS_P2;PMS_P1;PMS_P2;Temp;Humidity;BMP_temperature;BMP_pressure;BME280_temperature;BME280_humidity;BME280_pressure;Samples;Min_cycle;Max_cycle;Signal;HPM_P1;HPM_P2
2021/04/11 00:00:47;;;;;;;30.43;20.43;;;5.60;99.90;;;;;;5067203;28;20136;-59
2021/04/11 00:03:25;;;;;;;47.83;22.63;;;5.60;99.90;;;;;;5068967;28;20045;-59
2021/04/11 00:05:51;;;;;;;37.10;21.65;;;5.60;99.90;;;;;;5068858;28;20067;-59
2021/04/11 00:08:18;;;;;;;33.97;21.03;;;5.50;99.90;;;;;;5071119;28;20089;-58
2021/04/11 00:10:48;;;;;;;31.80;21.63;;;5.50;99.90;;;;;;5072389;28;20125;-59
2021/04/11 00:13:21;;;;;;;38.15;19.98;;;5.50;99.90;;;;;;5070960;28;20044;-59
2021/04/11 00:15:46;;;;;;;43.33;20.52;;;5.50;99.90;;;;;;5071937;28;20051;-59
2021/04/11 00:18:13;;;;;;;33.63;17.83;;;5.50;99.90;;;;;;5072287;28;20064;-59
2021/04/11 00:20:38;;;;;;;46.50;22.38;;;5.50;99.90;;;;;;5072599;28;20063;-59
2021/04/11 00:23:04;;;;;;;44.47;21.13;;;5.50;99.90;;;;;;5072116;28;20162;-60
2021/04/11 00:25:33;;;;;;;37.50;21.20;;;5.50;99.90;;;;;;5072017;28;20366;-59
2021/04/11 00:27:59;;;;;;;39.28;20.40;;;5.50;99.90;;;;;;5071912;28;20048;-59
2021/04/11 00:30:26;;;;;;;45.77;22.33;;;5.30;99.90;;;;;;5071965;28;20044;-59
2021/04/11 00:32:57;;;;;;;53.13;23.42;;;5.30;99.90;;;;;;5071391;28;20645;-60
2021/04/11 00:35:24;;;;;;;32.15;17.77;;;5.30;99.90;;;;;;5072090;28;20561;-59
2021/04/11 00:37:50;;;;;;;33.95;18.42;;;5.30;99.90;;;;;;5072056;28;20519;-59
2021/04/11 00:40:21;;;;;;;31.63;15.80;;;5.20;99.90;;;;;;5071995;28;20569;-59
2021/04/11 00:43:02;;;;;;;24.70;14.85;;;5.10;99.90;;;;;;5071547;28;20051;-59
2021/04/11 00:45:40;;;;;;;31.45;18.85;;;5.10;99.90;;;;;;5071730;28;20083;-60
2021/04/11 00:48:10;;;;;;;35.08;17.67;;;5.10;99.90;;;;;;5071668;28;20219;-59
2021/04/11 00:50:37;;;;;;;29.85;18.05;;;5.10;99.90;;;;;;5071374;28;20123;-59
2021/04/11 00:53:05;;;;;;;26.10;16.92;;;5.10;99.90;;;;;;5071432;28;20048;-59
2021/04/11 00:55:31;;;;;;;31.35;17.70;;;5.10;99.90;;;;;;5071412;28;20048;-59
2021/04/11 00:57:57;;;;;;;39.63;19.70;;;5.10;99.90;;;;;;5071339;28;20044;-60
2021/04/11 01:00:27;;;;;;;34.03;17.35;;;5.10;99.90;;;;;;5071223;28;20294;-59
2021/04/11 01:02:54;;;;;;;31.05;18.58;;;5.10;99.90;;;;;;5071390;28;20036;-59
2021/04/11 01:05:33;;;;;;;31.98;18.33;;;5.10;99.90;;;;;;5071159;28;20068;-59
2021/04/11 01:08:01;;;;;;;33.72;20.02;;;5.10;99.90;;;;;;5070872;28;20080;-59
2021/04/11 01:10:32;;;;;;;40.40;20.38;;;5.10;99.90;;;;;;5071202;28;20044;-59
2021/04/11 01:12:58;;;;;;;30.65;20.02;;;5.10;99.90;;;;;;5070919;28;20044;-59
2021/04/11 01:15:31;;;;;;;27.75;18.88;;;5.10;99.90;;;;;;5070919;28;20048;-59
2021/04/11 01:17:57;;;;;;;40.60;21.98;;;5.10;99.90;;;;;;5070787;28;20064;-57
2021/04/11 01:20:24;;;;;;;34.33;21.52;;;5.10;99.90;;;;;;5069752;28;20047;-57
2021/04/11 01:23:17;;;;;;;39.05;22.35;;;5.00;99.90;;;;;;5071028;28;20041;-58
2021/04/11 01:25:44;;;;;;;31.33;18.98;;;5.00;99.90;;;;;;5070712;28;20098;-58
2021/04/11 01:28:16;;;;;;;33.20;18.73;;;5.10;99.90;;;;;;5069332;28;20732;-58
2021/04/11 01:30:43;;;;;;;33.53;18.75;;;5.00;99.90;;;;;;5070512;28;20423;-58
2021/04/11 01:33:12;;;;;;;27.20;18.48;;;5.00;99.90;;;;;;5070058;28;20122;-59
2021/04/11 01:35:38;;;;;;;25.40;16.10;;;5.10;99.90;;;;;;5070344;28;20045;-59
2021/04/11 01:38:06;;;;;;;27.50;18.10;;;5.10;99.90;;;;;;5070197;28;20101;-59
2021/04/11 01:40:45;;;;;;;32.55;17.05;;;5.10;99.90;;;;;;5070661;28;20067;-58
2021/04/11 01:43:12;;;;;;;24.83;16.90;;;5.10;99.90;;;;;;5070536;28;20055;-59
2021/04/11 01:45:40;;;;;;;35.60;19.48;;;5.10;99.90;;;;;;5070322;28;20132;-58
2021/04/11 01:48:07;;;;;;;25.58;19.70;;;5.00;99.90;;;;;;5070199;28;20427;-58
2021/04/11 01:50:34;;;;;;;36.88;20.73;;;5.10;99.90;;;;;;5070100;28;20468;-58
2021/04/11 01:53:00;;;;;;;38.08;22.65;;;5.00;99.90;;;;;;5070016;28;20538;-58
2021/04/11 01:55:27;;;;;;;29.10;20.35;;;5.10;99.90;;;;;;5070219;28;20067;-58
2021/04/11 01:57:54;;;;;;;28.25;19.40;;;5.00;99.90;;;;;;5069513;28;20052;-58
2021/04/11 02:01:00;;;;;;;30.35;20.05;;;5.10;99.90;;;;;;5069361;28;20127;-59
2021/04/11 02:03:26;;;;;;;34.30;20.67;;;5.10;99.90;;;;;;5052607;28;20056;-58
2021/04/11 02:05:52;;;;;;;39.77;21.27;;;5.00;99.90;;;;;;5069639;28;20052;-59
2021/04/11 02:08:21;;;;;;;31.40;20.53;;;5.00;99.90;;;;;;5068378;28;20136;-59
2021/04/11 02:10:52;;;;;;;32.28;20.10;;;5.10;99.90;;;;;;5069598;28;20063;-59
2021/04/11 02:13:24;;;;;;;33.28;19.85;;;5.10;99.90;;;;;;5069830;28;20399;-61
2021/04/11 02:15:52;;;;;;;27.85;17.55;;;5.10;99.90;;;;;;5069818;28;20059;-59
2021/04/11 02:18:18;;;;;;;30.35;20.33;;;5.10;99.90;;;;;;5069578;28;20109;-60
2021/04/11 02:20:44;;;;;;;26.43;18.63;;;5.10;99.90;;;;;;5069639;28;20045;-59
2021/04/11 02:23:12;;;;;;;28.27;20.03;;;5.10;99.90;;;;;;5069631;28;20041;-60
2021/04/11 02:25:48;;;;;;;33.72;20.73;;;5.10;99.90;;;;;;5069615;28;20116;-59
2021/04/11 02:28:16;;;;;;;33.97;21.60;;;5.10;99.90;;;;;;5069566;28;20119;-59
2021/04/11 02:30:48;;;;;;;30.45;19.52;;;5.10;99.90;;;;;;5069581;28;20056;-59
2021/04/11 02:33:15;;;;;;;21.67;16.55;;;5.10;99.90;;;;;;5069371;28;20406;-59
2021/04/11 02:35:40;;;;;;;31.60;18.95;;;5.10;99.90;;;;;;5069408;28;20543;-59
2021/04/11 02:38:09;;;;;;;23.25;16.10;;;5.10;99.90;;;;;;5069379;28;20468;-59
2021/04/11 02:40:44;;;;;;;25.95;15.60;;;5.00;99.90;;;;;;5069495;28;20439;-59
2021/04/11 02:43:11;;;;;;;23.17;14.85;;;5.10;99.90;;;;;;5069260;28;20511;-59
2021/04/11 02:45:42;;;;;;;21.95;16.83;;;5.00;99.90;;;;;;5069317;28;20054;-58
2021/04/11 02:48:11;;;;;;;21.95;15.75;;;5.00;99.90;;;;;;5069403;28;20053;-60
2021/04/11 02:50:39;;;;;;;25.75;18.25;;;5.00;99.90;;;;;;5069126;28;20105;-59
2021/04/11 02:53:26;;;;;;;27.52;19.48;;;5.00;99.90;;;;;;5069348;28;20043;-59
2021/04/11 02:55:54;;;;;;;26.98;17.88;;;5.00;99.90;;;;;;5069063;28;20155;-60
2021/04/11 02:58:21;;;;;;;33.45;21.92;;;5.00;99.90;;;;;;5069221;28;20503;-59
2021/04/11 03:01:17;;;;;;;38.47;21.92;;;5.00;99.90;;;;;;5069135;28;20044;-60
2021/04/11 03:03:42;;;;;;;33.08;18.95;;;4.70;99.90;;;;;;5069197;28;20243;-59
2021/04/11 03:06:15;;;;;;;31.80;20.87;;;5.00;99.90;;;;;;5069155;28;20044;-59
2021/04/11 03:08:45;;;;;;;37.40;20.42;;;5.00;99.90;;;;;;5069182;28;20047;-59
2021/04/11 03:11:21;;;;;;;30.67;18.77;;;5.10;99.90;;;;;;5069047;28;20068;-59
2021/04/11 03:13:47;;;;;;;33.30;21.10;;;5.00;99.90;;;;;;5069424;28;20380;-60
2021/04/11 03:16:13;;;;;;;23.25;18.15;;;5.00;99.90;;;;;;5069085;28;20040;-60
2021/04/11 03:18:41;;;;;;;30.10;18.15;;;5.00;99.90;;;;;;5069097;28;20067;-59
2021/04/11 03:21:07;;;;;;;30.13;15.88;;;5.10;99.90;;;;;;5068987;28;20049;-59
2021/04/11 03:23:33;;;;;;;27.92;15.20;;;5.10;99.90;;;;;;5069149;28;20072;-60
2021/04/11 03:26:19;;;;;;;31.13;15.45;;;5.10;99.90;;;;;;5068732;28;20124;-58
2021/04/11 03:28:50;;;;;;;28.75;15.85;;;5.10;99.90;;;;;;5068514;28;20044;-59
2021/04/11 03:31:25;;;;;;;17.60;12.90;;;5.10;99.90;;;;;;5068340;28;20041;-60
2021/04/11 03:33:55;;;;;;;25.77;13.70;;;5.10;99.90;;;;;;5068966;28;20055;-59
2021/04/11 03:36:21;;;;;;;28.23;13.35;;;5.10;99.90;;;;;;5068830;28;20045;-59
2021/04/11 03:38:48;;;;;;;23.27;14.25;;;5.10;99.90;;;;;;5068929;28;20045;-58
2021/04/11 03:41:15;;;;;;;18.70;11.85;;;5.10;99.90;;;;;;5068629;28;20055;-58
2021/04/11 03:43:50;;;;;;;18.55;13.52;;;5.10;99.90;;;;;;5071980;28;20527;-59
2021/04/11 03:46:20;;;;;;;17.40;10.67;;;5.10;99.90;;;;;;5072581;28;20468;-59
2021/04/11 03:49:06;;;;;;;15.38;10.95;;;5.10;99.90;;;;;;5072189;28;20135;-58
2021/04/11 03:51:36;;;;;;;15.18;11.90;;;5.10;99.90;;;;;;5065031;28;20144;-59
2021/04/11 03:54:23;;;;;;;20.05;11.77;;;5.00;99.90;;;;;;5072117;28;20052;-59
2021/04/11 03:57:07;;;;;;;17.30;10.98;;;5.10;99.90;;;;;;5072241;28;20067;-58
2021/04/11 03:59:39;;;;;;;13.63;10.30;;;5.00;99.90;;;;;;5072394;28;20076;-59
2021/04/11 04:02:06;;;;;;;16.02;11.32;;;5.00;99.90;;;;;;5072321;28;20041;-59
2021/04/11 04:04:37;;;;;;;15.73;11.02;;;5.00;99.90;;;;;;5071817;28;20048;-58
2021/04/11 04:07:10;;;;;;;15.82;11.10;;;5.00;99.90;;;;;;5072013;28;20084;-59
2021/04/11 04:09:37;;;;;;;14.20;10.20;;;5.00;99.90;;;;;;5071957;28;20047;-58
2021/04/11 04:12:30;;;;;;;13.75;9.52;;;5.10;99.90;;;;;;5072021;28;20051;-59
2021/04/11 04:15:03;;;;;;;17.25;10.40;;;5.10;99.90;;;;;;5071669;28;20115;-59
2021/04/11 04:17:43;;;;;;;12.25;8.27;;;5.10;99.90;;;;;;5071574;28;20048;-58
2021/04/11 04:20:19;;;;;;;18.25;10.30;;;5.00;99.90;;;;;;5071551;28;20068;-58
2021/04/11 04:23:09;;;;;;;15.82;9.88;;;5.10;99.90;;;;;;5071787;28;20086;-59
2021/04/11 04:25:40;;;;;;;10.75;8.48;;;5.10;99.90;;;;;;5071591;28;20123;-59
2021/04/11 04:28:25;;;;;;;11.35;7.68;;;5.10;99.90;;;;;;5071498;28;20083;-60
2021/04/11 04:31:10;;;;;;;8.95;7.22;;;5.10;99.90;;;;;;5071144;28;20072;-59
2021/04/11 04:33:39;;;;;;;11.02;7.90;;;5.00;99.90;;;;;;5071501;28;20060;-58
2021/04/11 04:36:08;;;;;;;12.65;7.88;;;5.00;99.90;;;;;;5071807;28;20782;-58
2021/04/11 04:39:01;;;;;;;14.43;8.68;;;5.00;99.90;;;;;;5071568;28;20112;-59
2021/04/11 04:41:45;;;;;;;11.68;8.45;;;5.00;99.90;;;;;;5071290;28;20051;-58
2021/04/11 04:44:40;;;;;;;10.88;7.53;;;5.00;99.90;;;;;;5071115;28;20094;-58
2021/04/11 04:47:12;;;;;;;10.45;7.45;;;5.00;99.90;;;;;;5071320;28;20109;-58
2021/04/11 04:49:44;;;;;;;10.35;8.32;;;5.00;99.90;;;;;;5071320;28;20048;-59
2021/04/11 04:52:17;;;;;;;10.38;8.23;;;5.00;99.90;;;;;;5069174;28;20044;-59
2021/04/11 04:55:08;;;;;;;13.63;9.00;;;5.00;99.90;;;;;;5069677;28;20475;-58
2021/04/11 04:57:58;;;;;;;12.15;7.82;;;5.00;99.90;;;;;;5070417;28;20052;-59
2021/04/11 05:00:32;;;;;;;9.93;8.55;;;5.00;99.90;;;;;;5070334;28;20428;-59
2021/04/11 05:03:12;;;;;;;11.93;9.15;;;5.00;99.90;;;;;;5070559;28;20047;-59
2021/04/11 05:06:06;;;;;;;13.02;9.23;;;5.00;99.90;;;;;;5070646;28;20040;-59
2021/04/11 05:08:45;;;;;;;10.63;8.00;;;5.00;99.90;;;;;;5070806;28;20098;-58
2021/04/11 05:11:28;;;;;;;10.52;7.60;;;5.00;99.90;;;;;;5070818;28;20109;-59
2021/04/11 05:14:00;;;;;;;11.18;6.80;;;4.90;99.90;;;;;;5070795;28;20045;-58
2021/04/11 05:16:43;;;;;;;8.98;7.50;;;5.00;99.90;;;;;;5070743;28;20131;-60
2021/04/11 05:19:19;;;;;;;13.25;8.68;;;5.00;99.90;;;;;;5070670;28;20052;-60
2021/04/11 05:21:51;;;;;;;10.73;7.07;;;5.00;99.90;;;;;;5070550;28;20077;-59
2021/04/11 05:24:28;;;;;;;8.93;6.55;;;5.00;99.90;;;;;;5070329;28;20048;-58
2021/04/11 05:27:04;;;;;;;11.57;7.35;;;5.00;99.90;;;;;;5070510;28;20076;-59
2021/04/11 05:29:50;;;;;;;10.32;7.57;;;5.00;99.90;;;;;;5070594;28;20146;-59
2021/04/11 05:32:16;;;;;;;7.43;6.60;;;5.00;99.90;;;;;;5070392;28;20053;-59
2021/04/11 05:34:42;;;;;;;9.82;6.53;;;5.00;99.90;;;;;;5070624;28;20122;-59
2021/04/11 05:37:39;;;;;;;10.98;6.78;;;5.00;99.90;;;;;;5070100;28;20044;-59
2021/04/11 05:40:42;;;;;;;10.13;6.80;;;5.00;99.90;;;;;;5070256;28;20507;-59
2021/04/11 05:43:24;;;;;;;12.50;7.07;;;5.10;99.90;;;;;;5048288;28;20402;-59
2021/04/11 05:46:11;;;;;;;7.57;5.65;;;5.10;99.90;;;;;;5069958;28;20048;-60
2021/04/11 05:49:05;;;;;;;8.27;6.38;;;5.10;99.90;;;;;;5070178;28;20051;-59
2021/04/11 05:51:46;;;;;;;16.27;6.70;;;5.10;99.90;;;;;;5068833;28;20361;-59
2021/04/11 05:54:24;;;;;;;9.45;6.53;;;5.10;99.90;;;;;;5069964;28;20068;-59
2021/04/11 05:56:58;;;;;;;13.50;7.30;;;5.10;99.90;;;;;;5069882;28;20052;-60
2021/04/11 05:59:37;;;;;;;8.82;6.32;;;5.10;99.90;;;;;;5069914;28;20048;-59
2021/04/11 06:02:04;;;;;;;8.05;6.50;;;5.20;99.90;;;;;;5069706;28;20080;-58
2021/04/11 06:04:41;;;;;;;9.32;6.28;;;5.20;99.90;;;;;;5069826;28;20052;-59
2021/04/11 06:07:55;;;;;;;11.00;6.28;;;5.20;99.90;;;;;;5069681;28;20100;-59
2021/04/11 06:10:35;;;;;;;8.82;6.28;;;5.20;99.90;;;;;;5053321;28;20060;-60
2021/04/11 06:13:31;;;;;;;11.52;6.20;;;5.20;99.90;;;;;;5069522;28;20049;-60
2021/04/11 06:16:17;;;;;;;9.73;5.70;;;5.30;99.90;;;;;;5069609;28;20045;-58
2021/04/11 06:18:45;;;;;;;7.80;3.95;;;5.30;99.90;;;;;;5069454;28;20055;-59
2021/04/11 06:21:21;;;;;;;7.88;4.47;;;5.20;99.90;;;;;;5069521;28;20036;-59
2021/04/11 06:23:58;;;;;;;9.60;3.72;;;5.20;99.90;;;;;;5069714;28;20430;-59
2021/04/11 06:26:26;;;;;;;5.03;3.55;;;5.10;99.90;;;;;;5069713;28;20051;-59
2021/04/11 06:29:18;;;;;;;3.00;2.70;;;5.10;99.90;;;;;;5069508;28;20446;-58
2021/04/11 06:31:58;;;;;;;5.10;3.55;;;5.00;99.90;;;;;;5069084;28;20119;-59
2021/04/11 06:34:33;;;;;;;5.78;3.67;;;5.10;99.90;;;;;;5069166;28;20044;-59
2021/04/11 06:37:04;;;;;;;4.65;3.65;;;5.00;99.90;;;;;;5069732;28;20052;-59
2021/04/11 06:39:35;;;;;;;3.95;3.55;;;5.00;99.90;;;;;;5069459;28;20123;-59
2021/04/11 06:42:19;;;;;;;9.25;4.22;;;5.00;99.90;;;;;;5067977;28;20127;-59
2021/04/11 06:45:07;;;;;;;6.18;3.88;;;5.10;99.90;;;;;;5069408;28;20052;-60
2021/04/11 06:47:51;;;;;;;4.35;3.58;;;5.10;99.90;;;;;;5069233;28;20127;-59
2021/04/11 06:50:35;;;;;;;7.55;4.30;;;5.10;99.90;;;;;;5069159;28;20125;-59
2021/04/11 06:53:19;;;;;;;5.72;3.53;;;5.10;99.90;;;;;;5068928;28;20068;-59
2021/04/11 06:56:10;;;;;;;7.25;4.35;;;5.10;99.90;;;;;;5057254;28;20124;-58
2021/04/11 06:58:50;;;;;;;5.22;3.72;;;5.20;99.90;;;;;;5039163;28;20052;-57
2021/04/11 07:01:47;;;;;;;3.92;3.30;;;5.20;99.90;;;;;;5039880;28;20457;-58
2021/04/11 07:04:33;;;;;;;5.55;3.80;;;5.20;99.90;;;;;;5037000;28;20338;-59
2021/04/11 07:07:43;;;;;;;5.40;3.40;;;5.20;99.90;;;;;;5037854;28;20120;-59
2021/04/11 07:10:34;;;;;;;5.18;3.63;;;5.30;99.90;;;;;;5036954;28;20045;-59
2021/04/11 07:13:15;;;;;;;7.03;3.38;;;5.40;99.90;;;;;;5037298;28;20052;-59
2021/04/11 07:16:18;;;;;;;8.63;3.58;;;5.40;99.90;;;;;;5038531;28;20042;-59
2021/04/11 07:19:21;;;;;;;6.32;3.47;;;5.40;99.90;;;;;;5043944;28;20084;-59
2021/04/11 07:22:16;;;;;;;4.88;3.00;;;5.30;99.90;;;;;;5041408;28;20480;-59
2021/04/11 07:24:49;;;;;;;4.13;3.38;;;5.30;99.90;;;;;;5041785;28;20120;-60
2021/04/11 07:27:52;;;;;;;8.85;4.70;;;5.40;99.90;;;;;;5042052;28;20079;-58
2021/04/11 07:30:24;;;;;;;5.53;2.90;;;5.50;99.90;;;;;;5040657;28;20445;-59
2021/04/11 07:33:17;;;;;;;6.05;3.20;;;5.50;99.90;;;;;;5042685;28;20470;-58
2021/04/11 07:36:13;;;;;;;5.45;2.53;;;5.50;99.90;;;;;;5042456;28;20124;-59
2021/04/11 07:39:02;;;;;;;6.28;2.70;;;5.50;99.90;;;;;;5043938;28;20055;-59
2021/04/11 07:42:10;;;;;;;9.93;3.08;;;5.50;99.90;;;;;;5046821;28;20067;-62
2021/04/11 07:45:10;;;;;;;3.72;2.33;;;5.60;99.90;;;;;;5044517;28;20041;-59
2021/04/11 07:47:36;;;;;;;6.88;2.95;;;5.60;99.90;;;;;;5039705;28;20056;-60
2021/04/11 07:50:39;;;;;;;8.87;2.70;;;5.70;99.90;;;;;;5039030;28;20041;-59
2021/04/11 07:53:10;;;;;;;7.57;2.80;;;5.70;99.90;;;;;;5047397;28;20151;-60
2021/04/11 07:56:03;;;;;;;5.07;2.47;;;5.70;99.90;;;;;;5051601;28;20063;-59
2021/04/11 07:58:53;;;;;;;5.55;2.50;;;5.80;99.90;;;;;;5041429;28;20099;-59
2021/04/11 08:01:57;;;;;;;6.50;2.47;;;5.80;99.90;;;;;;5036771;28;20574;-61
2021/04/11 08:04:48;;;;;;;6.22;2.30;;;6.00;99.90;;;;;;5047536;28;20141;-59
2021/04/11 08:07:44;;;;;;;12.43;2.50;;;5.80;99.90;;;;;;5051443;28;20061;-59
2021/04/11 08:10:12;;;;;;;;;;;5.90;99.90;;;;;;5030655;28;20155;-60
2021/04/11 08:12:57;;;;;;;5.93;2.15;;;5.80;99.90;;;;;;5051578;28;20019;-60
2021/04/11 08:15:30;;;;;;;8.07;2.78;;;5.60;99.90;;;;;;5039068;28;20045;-60
2021/04/11 08:18:33;;;;;;;6.00;2.40;;;5.60;99.90;;;;;;5037098;28;20474;-59
2021/04/11 08:21:21;;;;;;;6.88;2.30;;;5.60;99.90;;;;;;5046687;28;20129;-59
2021/04/11 08:24:02;;;;;;;6.28;2.42;;;5.60;99.90;;;;;;5047757;28;20072;-60
2021/04/11 08:26:43;;;;;;;8.57;2.42;;;5.70;99.90;;;;;;5051275;28;20045;-60
2021/04/11 08:29:30;;;;;;;5.78;2.60;;;5.60;99.90;;;;;;5051217;28;20500;-60
2021/04/11 08:32:23;;;;;;;7.60;2.75;;;5.70;99.90;;;;;;5039790;28;20056;-60
2021/04/11 08:35:22;;;;;;;5.00;2.40;;;5.90;99.90;;;;;;5031102;28;20123;-59
2021/04/11 08:37:57;;;;;;;6.95;2.92;;;6.00;99.90;;;;;;5031275;28;20055;-61
2021/04/11 08:40:39;;;;;;;10.20;3.10;;;6.20;99.90;;;;;;5031115;28;20061;-60
2021/04/11 08:43:20;;;;;;;7.55;2.40;;;6.20;99.90;;;;;;5031001;28;20057;-61
2021/04/11 08:46:05;;;;;;;5.07;2.40;;;6.20;99.90;;;;;;5031178;28;20080;-58
2021/04/11 08:48:44;;;;;;;8.32;2.58;;;6.20;99.90;;;;;;5031195;28;20384;-61
2021/04/11 08:51:31;;;;;;;4.57;2.65;;;6.30;99.90;;;;;;5031193;28;20374;-66
2021/04/11 08:54:12;;;;;;;6.30;2.45;;;6.20;99.90;;;;;;5031335;28;20044;-66
2021/04/11 08:56:41;;;;;;;6.15;2.63;;;6.10;99.90;;;;;;5038683;28;20483;-67
2021/04/11 08:59:45;;;;;;;11.55;2.63;;;6.10;99.90;;;;;;5049792;28;20061;-65
2021/04/11 09:03:06;;;;;;;10.85;3.03;;;6.30;99.90;;;;;;5038839;28;20045;-68
2021/04/11 09:05:51;;;;;;;6.78;2.30;;;6.40;99.90;;;;;;5018804;28;20476;-60
2021/04/11 09:08:31;;;;;;;4.90;2.30;;;6.40;99.90;;;;;;5038770;28;20042;-61
2021/04/11 09:11:18;;;;;;;7.55;2.40;;;6.30;99.90;;;;;;5033087;28;20433;-61
2021/04/11 09:14:16;;;;;;;7.93;2.35;;;6.40;99.90;;;;;;5030634;28;20053;-61
2021/04/11 09:17:18;;;;;;;8.85;2.55;;;6.30;99.90;;;;;;5030505;28;20084;-61
2021/04/11 09:19:50;;;;;;;6.18;2.35;;;6.20;99.90;;;;;;5029171;28;20647;-62
2021/04/11 09:22:47;;;;;;;11.02;2.70;;;6.10;99.90;;;;;;5030299;28;20492;-61
2021/04/11 09:25:22;;;;;;;7.68;2.90;;;6.20;99.90;;;;;;5029139;28;20408;-61
2021/04/11 09:28:23;;;;;;;8.38;2.50;;;6.30;99.90;;;;;;5030397;28;20042;-62
2021/04/11 09:31:16;;;;;;;5.05;2.60;;;6.20;99.90;;;;;;5030123;28;20049;-61
2021/04/11 09:33:57;;;;;;;9.55;3.25;;;6.20;99.90;;;;;;5030016;28;20048;-61
2021/04/11 09:36:45;;;;;;;7.55;3.55;;;6.30;99.90;;;;;;5030183;28;20066;-61
2021/04/11 09:39:17;;;;;;;7.68;2.78;;;6.30;99.90;;;;;;5030117;28;20078;-60
2021/04/11 09:42:03;;;;;;;7.80;2.40;;;6.30;99.90;;;;;;5029426;28;20050;-61
2021/04/11 09:44:35;;;;;;;6.55;2.58;;;6.30;99.90;;;;;;5029833;28;20057;-61
2021/04/11 09:47:31;;;;;;;9.23;3.25;;;6.20;99.90;;;;;;5029668;28;20124;-61
2021/04/11 09:50:26;;;;;;;6.80;2.55;;;6.50;99.90;;;;;;5029840;28;20045;-61
2021/04/11 09:52:57;;;;;;;7.47;2.80;;;6.60;99.90;;;;;;5029576;28;20073;-60
2021/04/11 09:55:36;;;;;;;7.30;2.70;;;6.80;99.90;;;;;;5028984;28;20080;-61
2021/04/11 09:58:23;;;;;;;5.40;2.67;;;6.90;99.90;;;;;;5028794;28;20134;-62
2021/04/11 10:00:48;;;;;;;4.97;2.70;;;6.70;99.90;;;;;;5029207;28;20045;-63
2021/04/11 10:03:25;;;;;;;6.40;2.57;;;6.50;99.90;;;;;;5028961;28;20041;-60
2021/04/11 10:06:28;;;;;;;5.75;2.50;;;6.40;99.90;;;;;;5029129;28;20041;-62
2021/04/11 10:09:11;;;;;;;4.80;2.70;;;6.50;99.90;;;;;;5029590;28;20076;-61
2021/04/11 10:12:11;;;;;;;10.00;2.85;;;6.60;99.90;;;;;;5028701;28;20041;-62
2021/04/11 10:15:03;;;;;;;4.97;2.85;;;6.60;99.90;;;;;;5029352;28;20446;-63
2021/04/11 10:18:08;;;;;;;11.20;2.38;;;6.60;99.90;;;;;;5013717;28;20069;-60
2021/04/11 10:20:59;;;;;;;7.25;2.20;;;6.70;99.90;;;;;;5032306;28;20091;-63
2021/04/11 10:23:48;;;;;;;5.00;2.15;;;6.90;99.90;;;;;;5021462;28;20091;-63
2021/04/11 10:26:21;;;;;;;8.02;2.20;;;7.10;99.90;;;;;;5029285;28;20095;-63
2021/04/11 10:28:55;;;;;;;6.47;2.75;;;7.10;99.90;;;;;;5029026;28;20111;-62
2021/04/11 10:31:45;;;;;;;3.30;2.25;;;7.00;99.90;;;;;;5029107;28;20049;-62
2021/04/11 10:34:21;;;;;;;6.80;2.33;;;7.00;99.90;;;;;;5029035;28;20140;-63
2021/04/11 10:37:02;;;;;;;6.38;2.40;;;7.20;99.90;;;;;;5029194;28;20128;-62
2021/04/11 10:39:46;;;;;;;9.50;2.50;;;6.90;99.90;;;;;;5029077;28;20120;-62
2021/04/11 10:42:29;;;;;;;7.68;2.58;;;6.80;99.90;;;;;;5029060;28;20563;-62
2021/04/11 10:45:26;;;;;;;6.60;2.70;;;6.90;99.90;;;;;;5028839;28;20049;-62
2021/04/11 10:48:02;;;;;;;10.07;2.80;;;6.50;99.90;;;;;;5028967;28;20057;-59
2021/04/11 10:50:28;;;;;;;5.00;2.20;;;6.60;99.90;;;;;;5028897;28;20053;-66
2021/04/11 10:53:12;;;;;;;5.67;2.27;;;6.50;99.90;;;;;;5029085;28;20045;-59
2021/04/11 10:56:15;;;;;;;6.63;2.20;;;6.50;99.90;;;;;;5031015;28;20120;-60
2021/04/11 10:58:59;;;;;;;5.55;2.13;;;6.60;99.90;;;;;;5011711;28;20152;-61
2021/04/11 11:01:49;;;;;;;7.15;2.22;;;6.80;99.90;;;;;;5033970;28;20488;-61
2021/04/11 11:05:09;;;;;;;5.63;2.30;;;6.80;99.90;;;;;;5034604;28;20050;-60
2021/04/11 11:08:03;;;;;;;6.47;2.47;;;6.70;99.90;;;;;;5035166;28;20434;-61
2021/04/11 11:10:51;;;;;;;5.13;2.30;;;6.70;99.90;;;;;;5033232;28;20589;-61
2021/04/11 11:13:47;;;;;;;4.65;2.17;;;6.80;99.90;;;;;;5031011;28;20049;-61
2021/04/11 11:16:26;;;;;;;8.52;2.42;;;6.70;99.90;;;;;;5028661;28;20049;-63
2021/04/11 11:19:16;;;;;;;4.35;2.58;;;6.60;99.90;;;;;;5028462;28;20046;-62
2021/04/11 11:21:49;;;;;;;5.63;2.45;;;6.50;99.90;;;;;;5028148;28;20120;-62
2021/04/11 11:24:26;;;;;;;4.35;2.20;;;6.40;99.90;;;;;;5028623;28;20050;-61
2021/04/11 11:27:19;;;;;;;6.32;3.08;;;6.50;99.90;;;;;;5027267;28;20045;-59
2021/04/11 11:30:19;;;;;;;6.88;2.40;;;6.80;99.90;;;;;;5028604;28;20057;-61
2021/04/11 11:33:12;;;;;;;5.88;2.10;;;6.80;99.90;;;;;;5028261;28;20140;-59
2021/04/11 11:35:48;;;;;;;3.92;1.95;;;6.80;99.90;;;;;;5028425;28;20737;-59
2021/04/11 11:38:26;;;;;;;4.20;2.20;;;7.00;99.90;;;;;;5028687;28;20045;-60
2021/04/11 11:40:58;;;;;;;3.45;2.20;;;7.10;99.90;;;;;;5028523;28;20053;-60
2021/04/11 11:43:43;;;;;;;5.25;2.00;;;7.10;99.90;;;;;;5028537;28;20184;-59
2021/04/11 11:46:16;;;;;;;3.78;1.73;;;7.10;99.90;;;;;;5028674;28;20365;-59
2021/04/11 11:48:54;;;;;;;4.10;1.75;;;6.70;99.90;;;;;;5027792;28;20053;-59
2021/04/11 11:51:32;;;;;;;6.32;2.00;;;6.50;99.90;;;;;;5027679;28;20049;-59
2021/04/11 11:54:12;;;;;;;3.47;1.80;;;6.40;99.90;;;;;;5027342;28;20061;-62
2021/04/11 11:56:43;;;;;;;6.03;1.92;;;6.30;99.90;;;;;;5028394;28;20222;-60
2021/04/11 11:59:12;;;;;;;5.65;1.80;;;6.20;99.90;;;;;;5027929;28;20057;-61
2021/04/11 12:01:44;;;;;;;5.00;1.55;;;6.20;99.90;;;;;;5028097;28;20115;-62
2021/04/11 12:04:33;;;;;;;5.85;1.85;;;6.30;99.90;;;;;;5030562;28;20561;-62
2021/04/11 12:07:08;;;;;;;3.75;1.50;;;6.50;99.90;;;;;;5023990;28;20049;-62
2021/04/11 12:09:36;;;;;;;4.60;1.75;;;6.50;99.90;;;;;;5029952;28;20133;-62
2021/04/11 12:12:11;;;;;;;2.83;1.60;;;6.60;99.90;;;;;;5031564;28;20068;-62
2021/04/11 12:15:15;;;;;;;3.13;2.05;;;6.90;99.90;;;;;;5031487;28;20053;-62
2021/04/11 12:18:07;;;;;;;3.20;1.40;;;7.00;99.90;;;;;;4989254;28;20046;-62
2021/04/11 12:20:43;;;;;;;4.35;1.50;;;6.80;99.90;;;;;;4978493;28;20506;-63
2021/04/11 12:23:36;;;;;;;2.83;1.50;;;7.00;99.90;;;;;;5019519;28;20149;-61
2021/04/11 12:26:09;;;;;;;3.38;1.83;;;7.00;99.90;;;;;;5031397;28;20112;-62
2021/04/11 12:28:36;;;;;;;4.38;1.83;;;7.20;99.90;;;;;;5031492;28;20437;-61
2021/04/11 12:31:12;;;;;;;4.18;1.80;;;7.30;99.90;;;;;;5031419;28;20094;-61
2021/04/11 12:33:49;;;;;;;2.83;1.67;;;7.20;99.90;;;;;;5031039;28;20405;-62
2021/04/11 12:36:27;;;;;;;3.42;1.60;;;7.30;99.90;;;;;;5031373;28;20072;-62
2021/04/11 12:39:05;;;;;;;3.05;1.60;;;7.60;99.90;;;;;;5031188;28;20076;-61
2021/04/11 12:41:48;;;;;;;4.95;1.75;;;7.20;99.90;;;;;;5031213;28;20056;-62
2021/04/11 12:44:40;;;;;;;4.18;1.70;;;7.70;99.90;;;;;;5031148;28;20076;-61
2021/04/11 12:47:26;;;;;;;3.33;1.65;;;7.50;99.90;;;;;;5031117;28;20049;-62
2021/04/11 12:50:29;;;;;;;2.42;1.38;;;7.30;99.90;;;;;;5030654;28;20049;-61
2021/04/11 12:53:21;;;;;;;3.80;1.95;;;7.30;99.90;;;;;;5030686;28;20061;-61
2021/04/11 12:55:54;;;;;;;2.30;1.70;;;6.90;99.90;;;;;;5030475;28;20045;-61
2021/04/11 12:58:39;;;;;;;3.92;1.50;;;7.00;99.90;;;;;;5030888;28;20068;-61
2021/04/11 13:01:12;;;;;;;;;;;6.80;99.90;;;;;;5031111;28;20056;-61
2021/04/11 13:03:52;;;;;;;2.80;1.30;;;7.00;99.90;;;;;;5030479;28;19968;-61
2021/04/11 13:06:24;;;;;;;3.20;1.40;;;6.80;99.90;;;;;;5030336;28;20045;-60
2021/04/11 13:09:05;;;;;;;3.88;1.60;;;6.70;99.90;;;;;;5030297;28;20163;-61
2021/04/11 13:11:52;;;;;;;2.97;1.23;;;6.70;99.90;;;;;;5029932;28;20389;-61
2021/04/11 13:14:37;;;;;;;4.97;1.77;;;6.60;98.10;;;;;;5029737;28;20449;-61
2021/04/11 13:17:08;;;;;;;3.00;1.45;;;6.40;99.20;;;;;;5029963;28;20076;-61
2021/04/11 13:19:52;;;;;;;4.20;1.40;;;6.20;98.60;;;;;;5030120;28;20077;-61
2021/04/11 13:22:25;;;;;;;5.60;1.80;;;5.40;98.10;;;;;;5029391;28;20049;-60
2021/04/11 13:25:12;;;;;;;6.13;1.80;;;5.50;99.90;;;;;;5029012;28;20045;-60
2021/04/11 13:28:11;;;;;;;2.72;1.30;;;5.60;99.90;;;;;;5028562;28;20068;-61
2021/04/11 13:30:54;;;;;;;4.45;1.40;;;5.70;99.90;;;;;;5046359;28;20115;-62
2021/04/11 13:33:24;;;;;;;3.80;1.65;;;5.90;99.90;;;;;;5050042;28;20061;-62
2021/04/11 13:35:59;;;;;;;4.90;1.40;;;6.00;99.90;;;;;;5049713;28;20049;-60
2021/04/11 13:38:31;;;;;;;3.53;1.60;;;6.00;97.30;;;;;;5050022;28;20053;-61
2021/04/11 13:41:19;;;;;;;5.03;1.55;;;6.10;98.00;;;;;;5049838;28;20076;-61
2021/04/11 13:43:56;;;;;;;2.90;1.30;;;6.40;99.90;;;;;;5049851;28;20119;-62
2021/04/11 13:47:00;;;;;;;4.63;1.55;;;6.60;98.20;;;;;;5049461;28;20504;-62
2021/04/11 13:49:41;;;;;;;2.20;1.30;;;6.60;96.70;;;;;;5040601;28;20472;-62
2021/04/11 13:52:28;;;;;;;7.97;1.98;;;7.00;98.10;;;;;;5049588;28;20648;-61
2021/04/11 13:54:59;;;;;;;4.07;1.27;;;7.00;97.60;;;;;;5049684;28;20369;-62